Time;durP1;ratioP1;P1;durP2;ratioP2;P2;SDS_P1;SDS_P2;PMS_P1;PMS_P2;Temp;Humidity;BMP_temperature;BMP_pressure;BME280_temperature;BME280_humidity;BME280_pressure;Samples;Min_cycle;Max_cycle;Signal;HPM_P1;HPM_P2
2021/09/21 00:00:49;;;;;;;5.90;3.50;;;11.20;99.90;;;;;;5057512;28;20187;-80
2021/09/21 00:03:16;;;;;;;4.23;3.30;;;11.30;99.90;;;;;;5039838;28;20280;-80
2021/09/21 00:05:41;;;;;;;4.40;3.13;;;11.30;99.90;;;;;;5058724;28;20241;-79
2021/09/21 00:08:10;;;;;;;5.20;3.60;;;11.30;99.90;;;;;;5041611;28;20648;-80
2021/09/21 00:10:35;;;;;;;4.60;3.30;;;11.20;99.90;;;;;;5056187;28;20548;-80
2021/09/21 00:13:02;;;;;;;4.50;3.47;;;11.20;99.90;;;;;;5040102;28;20172;-80
2021/09/21 00:15:28;;;;;;;4.67;3.60;;;11.20;99.90;;;;;;5056256;28;20181;-80
2021/09/21 00:17:53;;;;;;;6.30;3.13;;;11.20;99.90;;;;;;5039346;28;20247;-80
2021/09/21 00:20:19;;;;;;;5.23;3.40;;;11.30;99.90;;;;;;5071904;28;20230;-80
2021/09/21 00:22:45;;;;;;;4.13;3.73;;;11.30;99.90;;;;;;5038687;28;20184;-80
2021/09/21 00:25:12;;;;;;;3.77;3.30;;;11.20;99.90;;;;;;5055681;28;20197;-80
2021/09/21 00:27:38;;;;;;;5.03;3.70;;;11.20;99.90;;;;;;5039875;28;20200;-80
2021/09/21 00:30:04;;;;;;;4.73;3.90;;;11.30;99.90;;;;;;5038431;28;20716;-80
2021/09/21 00:32:30;;;;;;;5.70;4.00;;;11.30;99.90;;;;;;5072538;28;20212;-80
2021/09/21 00:34:55;;;;;;;5.50;3.73;;;11.20;99.90;;;;;;5039432;28;20193;-80
2021/09/21 00:37:21;;;;;;;4.77;3.80;;;11.30;99.90;;;;;;5038891;28;20227;-80
2021/09/21 00:39:47;;;;;;;5.43;3.40;;;11.30;99.90;;;;;;5039180;28;20177;-80
2021/09/21 00:42:13;;;;;;;5.17;3.90;;;11.40;99.90;;;;;;5039516;28;20315;-80
2021/09/21 00:44:39;;;;;;;4.97;3.57;;;11.40;99.90;;;;;;5039335;28;20211;-80
2021/09/21 00:47:07;;;;;;;6.97;4.00;;;11.30;99.90;;;;;;5039759;28;20173;-80
2021/09/21 00:49:33;;;;;;;7.87;3.87;;;11.30;99.90;;;;;;5039143;28;20187;-80
2021/09/21 00:51:59;;;;;;;6.23;4.07;;;11.30;99.90;;;;;;5038936;28;20245;-80
2021/09/21 00:54:24;;;;;;;5.87;4.30;;;11.30;99.90;;;;;;5055780;28;20619;-79
2021/09/21 00:56:50;;;;;;;6.37;4.03;;;11.30;99.90;;;;;;5038921;28;20238;-80
2021/09/21 00:59:15;;;;;;;5.93;4.07;;;11.40;99.90;;;;;;5057222;28;20567;-80
2021/09/21 01:01:41;;;;;;;6.70;4.20;;;11.40;99.90;;;;;;5059347;28;20179;-80
2021/09/21 01:04:06;;;;;;;5.83;3.70;;;11.40;99.90;;;;;;5042841;28;20236;-80
2021/09/21 01:06:32;;;;;;;7.47;4.53;;;11.30;99.90;;;;;;5060102;28;20252;-80
2021/09/21 01:08:58;;;;;;;4.47;3.60;;;11.30;99.90;;;;;;5059628;28;20169;-80
2021/09/21 01:11:23;;;;;;;4.63;3.90;;;11.30;99.90;;;;;;5059227;28;20205;-80
2021/09/21 01:13:49;;;;;;;8.13;4.63;;;11.30;99.90;;;;;;5042279;28;20193;-80
2021/09/21 01:16:15;;;;;;;5.37;3.83;;;11.30;99.90;;;;;;5058965;28;20600;-80
2021/09/21 01:18:40;;;;;;;6.23;4.33;;;11.20;99.90;;;;;;5042263;28;20177;-80
2021/09/21 01:21:07;;;;;;;7.07;4.07;;;11.20;99.90;;;;;;5059204;28;20219;-80
2021/09/21 01:23:47;;;;;;;5.67;4.17;;;11.20;99.90;;;;;;5059000;28;20690;-80
2021/09/21 01:26:12;;;;;;;6.93;4.37;;;11.10;99.90;;;;;;5059773;28;20633;-80
2021/09/21 01:28:38;;;;;;;4.90;4.00;;;11.10;99.90;;;;;;5042026;28;20391;-80
2021/09/21 01:31:03;;;;;;;7.20;4.43;;;11.00;99.90;;;;;;5058739;28;20211;-80
2021/09/21 01:33:29;;;;;;;6.97;3.73;;;10.90;99.90;;;;;;5058820;28;20174;-80
2021/09/21 01:35:54;;;;;;;4.63;3.77;;;10.90;99.90;;;;;;5042170;28;20233;-80
2021/09/21 01:38:20;;;;;;;5.77;4.07;;;10.90;99.90;;;;;;5042755;28;20234;-80
2021/09/21 01:40:45;;;;;;;5.13;4.27;;;10.80;99.90;;;;;;5058615;28;20177;-80
2021/09/21 01:43:11;;;;;;;5.93;3.97;;;10.80;99.90;;;;;;5058706;28;20261;-80
2021/09/21 01:45:37;;;;;;;6.20;4.13;;;10.80;99.90;;;;;;5042001;28;20295;-80
2021/09/21 01:48:02;;;;;;;6.60;4.40;;;10.80;99.90;;;;;;5042244;28;20259;-80
2021/09/21 01:58:46;;;;;;;5.17;4.00;;;10.60;99.90;;;;;;5058738;28;20184;-80
2021/09/21 02:01:12;;;;;;;5.50;4.10;;;10.50;99.90;;;;;;5050512;28;20270;-80
2021/09/21 02:03:38;;;;;;;6.67;4.30;;;10.40;99.90;;;;;;5058636;28;20665;-80
2021/09/21 02:06:05;;;;;;;5.90;3.70;;;10.30;99.90;;;;;;5058711;28;20261;-80
2021/09/21 02:08:31;;;;;;;8.97;4.23;;;10.30;99.90;;;;;;5058549;28;20187;-80
2021/09/21 02:10:56;;;;;;;5.43;4.23;;;10.30;99.90;;;;;;5058294;28;20207;-80
2021/09/21 02:13:22;;;;;;;7.00;4.13;;;10.20;99.90;;;;;;5075160;28;20184;-80
2021/09/21 02:15:47;;;;;;;7.47;4.43;;;10.20;99.90;;;;;;5058121;28;20169;-80
2021/09/21 02:18:13;;;;;;;6.73;4.20;;;10.20;99.90;;;;;;5041604;28;20181;-80
2021/09/21 02:20:38;;;;;;;5.80;4.20;;;10.10;99.90;;;;;;5041464;28;20184;-80
2021/09/21 02:23:04;;;;;;;5.87;4.27;;;10.00;99.90;;;;;;5041113;28;20174;-79
2021/09/21 02:25:30;;;;;;;6.73;4.23;;;10.00;99.90;;;;;;5041400;28;20659;-80
2021/09/21 02:27:55;;;;;;;7.57;4.47;;;10.00;99.90;;;;;;5057919;28;20263;-80
2021/09/21 02:30:21;;;;;;;6.33;4.70;;;9.90;99.90;;;;;;5041161;28;20268;-80
2021/09/21 02:32:49;;;;;;;6.03;4.43;;;9.90;99.90;;;;;;5058245;28;20350;-80
2021/09/21 02:35:15;;;;;;;5.63;4.20;;;9.80;99.90;;;;;;5058419;28;20199;-80
2021/09/21 02:37:40;;;;;;;6.07;4.30;;;9.80;99.90;;;;;;5041977;28;20192;-80
2021/09/21 02:40:08;;;;;;;4.80;4.20;;;9.80;99.90;;;;;;5041897;28;20180;-80
2021/09/21 02:42:33;;;;;;;8.50;4.70;;;9.70;99.90;;;;;;5058247;28;20250;-80
2021/09/21 02:44:59;;;;;;;6.57;4.13;;;9.70;99.90;;;;;;5058341;28;20214;-80
2021/09/21 02:47:24;;;;;;;6.33;4.63;;;9.70;99.90;;;;;;5058628;28;20190;-80
2021/09/21 02:49:50;;;;;;;6.53;4.53;;;9.70;99.90;;;;;;5057524;28;20243;-80
2021/09/21 02:52:16;;;;;;;6.43;4.47;;;9.70;99.90;;;;;;5057656;28;20220;-80
2021/09/21 02:54:41;;;;;;;6.00;4.17;;;9.60;99.90;;;;;;5057420;28;20655;-80
2021/09/21 02:57:07;;;;;;;7.13;4.10;;;9.60;99.90;;;;;;5074629;28;20191;-80
2021/09/21 02:59:32;;;;;;;7.47;4.80;;;9.50;99.90;;;;;;5057767;28;20270;-80
2021/09/21 03:01:58;;;;;;;9.93;4.20;;;9.50;99.90;;;;;;5041108;28;20207;-80
2021/09/21 03:04:30;;;;;;;6.33;4.70;;;9.50;99.90;;;;;;5057446;28;20203;-80
2021/09/21 03:09:55;;;;;;;6.73;4.57;;;9.40;99.90;;;;;;5060412;28;20188;-80
2021/09/21 03:12:32;;;;;;;6.57;4.50;;;9.30;99.90;;;;;;5042510;28;20671;-80
2021/09/21 03:17:42;;;;;;;6.53;4.57;;;9.30;99.90;;;;;;5060787;28;20220;-78
2021/09/21 03:20:07;;;;;;;7.57;4.90;;;9.20;99.90;;;;;;5039967;28;20261;-78
2021/09/21 03:22:33;;;;;;;6.57;4.73;;;9.20;99.90;;;;;;5040584;28;20251;-78
2021/09/21 03:24:59;;;;;;;6.00;4.97;;;9.30;99.90;;;;;;5040569;28;20651;-78
2021/09/21 03:27:24;;;;;;;7.00;4.63;;;9.20;99.90;;;;;;5057374;28;20176;-78
2021/09/21 03:29:50;;;;;;;6.53;4.50;;;9.20;99.90;;;;;;5057249;28;20626;-78
2021/09/21 03:32:15;;;;;;;6.30;4.40;;;9.20;99.90;;;;;;5040929;28;20212;-78
2021/09/21 03:34:41;;;;;;;7.57;4.77;;;9.20;99.90;;;;;;5074550;28;20189;-78
2021/09/21 03:37:07;;;;;;;6.17;4.80;;;9.20;99.90;;;;;;5058100;28;20177;-78
2021/09/21 03:39:33;;;;;;;6.10;4.63;;;9.10;99.90;;;;;;5057977;28;20241;-78
2021/09/21 03:41:59;;;;;;;7.47;4.80;;;9.10;99.90;;;;;;5057812;28;20291;-78
2021/09/21 03:44:26;;;;;;;6.67;4.80;;;9.20;99.90;;;;;;5041225;28;20251;-78
2021/09/21 03:46:52;;;;;;;7.70;5.40;;;9.20;99.90;;;;;;5041845;28;20822;-78
2021/09/21 03:49:17;;;;;;;6.70;5.10;;;9.10;99.90;;;;;;5040917;28;20180;-78
2021/09/21 03:51:43;;;;;;;8.70;5.40;;;9.20;99.90;;;;;;5057993;28;20207;-78
2021/09/21 03:54:09;;;;;;;8.10;5.87;;;9.10;99.90;;;;;;5041033;28;20210;-78
2021/09/21 03:56:38;;;;;;;8.20;5.30;;;9.00;99.90;;;;;;5041061;28;20170;-78
2021/09/21 03:59:05;;;;;;;9.20;6.40;;;9.10;99.90;;;;;;5055994;28;20194;-77
2021/09/21 04:01:30;;;;;;;7.60;5.97;;;9.10;99.90;;;;;;5053899;28;20215;-78
2021/09/21 04:03:56;;;;;;;9.00;6.07;;;9.00;99.90;;;;;;5037724;28;20623;-78
2021/09/21 04:06:22;;;;;;;8.77;6.40;;;8.90;99.90;;;;;;5064819;28;20269;-77
2021/09/21 04:08:47;;;;;;;10.47;6.30;;;8.80;99.90;;;;;;5050530;28;20179;-78
2021/09/21 04:11:13;;;;;;;8.80;6.20;;;8.90;99.90;;;;;;5061061;28;20198;-78
2021/09/21 04:13:38;;;;;;;7.47;5.83;;;8.80;99.90;;;;;;5043961;28;20643;-78
2021/09/21 04:16:04;;;;;;;8.33;6.07;;;8.80;99.90;;;;;;5045522;28;20646;-77
2021/09/21 04:18:30;;;;;;;7.17;6.17;;;8.90;99.90;;;;;;5042186;28;20176;-77
2021/09/21 04:20:55;;;;;;;9.47;5.53;;;8.80;99.90;;;;;;5033910;28;20310;-77
2021/09/21 04:23:21;;;;;;;9.97;6.30;;;8.80;99.90;;;;;;5050672;28;20322;-78
2021/09/21 04:25:46;;;;;;;8.77;6.03;;;8.80;99.90;;;;;;5050552;28;20179;-79
2021/09/21 04:28:12;;;;;;;8.63;6.60;;;8.80;99.90;;;;;;5050688;28;20179;-77
2021/09/21 04:30:39;;;;;;;9.20;5.70;;;8.80;99.90;;;;;;5050302;28;20182;-77
2021/09/21 04:33:05;;;;;;;11.13;6.00;;;8.80;99.90;;;;;;5034407;28;20176;-78
2021/09/21 04:35:30;;;;;;;8.10;6.13;;;8.70;99.90;;;;;;5037789;28;20201;-77
2021/09/21 04:37:56;;;;;;;8.73;5.50;;;8.70;99.90;;;;;;5067321;28;20194;-78
2021/09/21 04:40:21;;;;;;;7.83;5.87;;;8.70;99.90;;;;;;5040809;28;20178;-77
2021/09/21 04:42:47;;;;;;;8.60;6.07;;;8.70;99.90;;;;;;5057689;28;20277;-77
2021/09/21 04:45:12;;;;;;;9.83;6.33;;;8.60;99.90;;;;;;5074047;28;20479;-78
2021/09/21 04:47:38;;;;;;;8.37;5.60;;;8.60;99.90;;;;;;5057680;28;20179;-78
2021/09/21 04:50:04;;;;;;;7.80;5.70;;;8.60;99.90;;;;;;5039106;28;20183;-79
2021/09/21 04:52:29;;;;;;;8.03;5.97;;;8.60;99.90;;;;;;5082273;28;20201;-80
2021/09/21 04:54:55;;;;;;;9.27;6.17;;;8.50;99.90;;;;;;5057030;28;20253;-79
2021/09/21 04:57:21;;;;;;;9.13;6.60;;;8.50;99.90;;;;;;5041016;28;20234;-74
2021/09/21 04:59:46;;;;;;;10.20;6.53;;;8.50;99.90;;;;;;5057005;28;20551;-74
2021/09/21 05:02:12;;;;;;;7.47;6.07;;;8.50;99.90;;;;;;5057047;28;20637;-74
2021/09/21 05:04:37;;;;;;;9.33;6.90;;;8.50;99.90;;;;;;5074791;28;20191;-74
2021/09/21 05:07:03;;;;;;;10.17;6.50;;;8.50;99.90;;;;;;5073596;28;20181;-75
2021/09/21 05:09:28;;;;;;;8.47;6.27;;;8.50;99.90;;;;;;5069473;28;20734;-74
2021/09/21 05:11:54;;;;;;;11.87;6.50;;;8.50;99.90;;;;;;5062489;28;20663;-74
2021/09/21 05:14:20;;;;;;;9.77;6.67;;;8.50;99.90;;;;;;5068626;28;20209;-73
2021/09/21 05:16:45;;;;;;;10.13;6.93;;;8.50;99.90;;;;;;5073306;28;20166;-73
2021/09/21 05:19:13;;;;;;;8.63;6.97;;;8.50;99.90;;;;;;5073256;28;20228;-73
2021/09/21 05:21:40;;;;;;;12.07;7.10;;;8.40;99.90;;;;;;5073075;28;20177;-75
2021/09/21 05:24:06;;;;;;;8.10;6.40;;;8.50;99.90;;;;;;5056546;28;20243;-81
2021/09/21 05:26:31;;;;;;;10.27;6.83;;;8.40;99.90;;;;;;5036944;28;20188;-77
2021/09/21 05:28:57;;;;;;;8.93;6.77;;;8.40;99.90;;;;;;5046338;28;20586;-78
2021/09/21 05:31:23;;;;;;;17.37;8.03;;;8.40;99.90;;;;;;5064405;28;20206;-77
2021/09/21 05:33:48;;;;;;;9.90;7.10;;;8.40;99.90;;;;;;5064101;28;20217;-78
2021/09/21 05:36:14;;;;;;;14.10;7.23;;;8.40;99.90;;;;;;5045708;28;20172;-78
2021/09/21 05:38:39;;;;;;;10.93;7.40;;;8.40;99.90;;;;;;5030297;28;20191;-78
2021/09/21 05:41:05;;;;;;;9.93;7.07;;;8.60;99.90;;;;;;5054008;28;20550;-78
2021/09/21 05:43:30;;;;;;;10.40;7.23;;;8.60;99.90;;;;;;5055696;28;20202;-77
2021/09/21 05:45:56;;;;;;;12.87;7.23;;;8.60;99.90;;;;;;5076159;28;20577;-77
2021/09/21 05:48:22;;;;;;;11.70;8.37;;;8.60;99.90;;;;;;5076800;28;20178;-77
2021/09/21 05:50:47;;;;;;;13.00;8.23;;;8.80;99.90;;;;;;5078633;28;20187;-77
2021/09/21 05:53:13;;;;;;;14.33;7.60;;;8.70;99.90;;;;;;5076746;28;20175;-76
2021/09/21 05:55:38;;;;;;;11.87;8.37;;;8.80;99.90;;;;;;5076826;28;20717;-77
2021/09/21 05:58:04;;;;;;;11.77;8.10;;;8.90;99.90;;;;;;5076648;28;20246;-77
2021/09/21 06:00:30;;;;;;;11.27;7.70;;;8.90;99.90;;;;;;5076684;28;20176;-77
2021/09/21 06:02:56;;;;;;;12.03;7.87;;;9.00;99.90;;;;;;5076605;28;20251;-76
2021/09/21 06:05:21;;;;;;;14.17;8.00;;;9.00;99.90;;;;;;5093290;28;20285;-76
2021/09/21 06:07:48;;;;;;;10.43;8.50;;;9.10;99.90;;;;;;5059608;28;20236;-76
2021/09/21 06:10:14;;;;;;;11.53;7.57;;;9.10;99.90;;;;;;5076281;28;20172;-76
2021/09/21 06:12:39;;;;;;;11.80;8.07;;;9.20;99.90;;;;;;5076106;28;20204;-77
2021/09/21 06:15:06;;;;;;;13.37;8.20;;;9.30;99.90;;;;;;5093353;28;20700;-76
2021/09/21 06:17:31;;;;;;;11.37;8.33;;;9.30;99.90;;;;;;5093751;28;20199;-76
2021/09/21 06:19:57;;;;;;;13.73;8.30;;;9.40;99.90;;;;;;5077055;28;20202;-76
2021/09/21 06:22:22;;;;;;;13.00;8.23;;;9.60;99.90;;;;;;5078003;28;20681;-80
2021/09/21 06:24:48;;;;;;;11.77;8.47;;;9.70;99.90;;;;;;5059263;28;20197;-76
2021/09/21 06:27:13;;;;;;;14.87;8.60;;;9.70;99.90;;;;;;5019656;28;20189;-79
2021/09/21 06:29:39;;;;;;;12.77;8.63;;;9.90;99.90;;;;;;5018882;28;20187;-73
2021/09/21 06:32:05;;;;;;;11.73;8.53;;;10.00;99.90;;;;;;5035540;28;20213;-73
2021/09/21 06:34:30;;;;;;;12.10;8.63;;;10.10;99.90;;;;;;5052380;28;20202;-75
2021/09/21 06:36:56;;;;;;;10.20;8.23;;;10.20;99.90;;;;;;5019040;28;20176;-75
2021/09/21 06:39:21;;;;;;;10.30;8.13;;;10.20;99.90;;;;;;5055895;28;20180;-76
2021/09/21 06:41:47;;;;;;;13.50;8.80;;;10.20;99.90;;;;;;5038918;28;20189;-75
2021/09/21 06:44:12;;;;;;;10.97;8.57;;;10.20;99.90;;;;;;5038429;28;20214;-75
2021/09/21 06:46:38;;;;;;;10.33;8.00;;;10.30;99.90;;;;;;5071722;28;20272;-76
2021/09/21 06:49:04;;;;;;;13.27;8.40;;;10.40;99.90;;;;;;5072150;28;20714;-77
2021/09/21 06:51:31;;;;;;;11.57;8.77;;;10.40;99.90;;;;;;5071636;28;20212;-74
2021/09/21 06:53:57;;;;;;;12.83;9.00;;;10.40;99.90;;;;;;5072351;28;20193;-76
2021/09/21 06:56:27;;;;;;;12.23;9.10;;;10.40;99.90;;;;;;5071733;28;20173;-76
2021/09/21 06:58:53;;;;;;;10.77;8.07;;;10.40;99.90;;;;;;5072880;28;20187;-74
2021/09/21 07:01:19;;;;;;;23.60;17.57;;;10.50;99.90;;;;;;5071983;28;20211;-76
2021/09/21 07:03:44;;;;;;;18.37;12.80;;;10.50;99.90;;;;;;5035438;28;20213;-75
2021/09/21 07:06:10;;;;;;;12.77;8.10;;;10.60;99.90;;;;;;5052331;28;20182;-73
2021/09/21 07:08:35;;;;;;;13.17;9.20;;;10.70;99.90;;;;;;5034416;28;20235;-74
2021/09/21 07:11:01;;;;;;;12.50;9.60;;;10.80;99.90;;;;;;5034321;28;20248;-73
2021/09/21 07:13:26;;;;;;;12.83;9.27;;;10.80;99.90;;;;;;5051175;28;20190;-73
2021/09/21 07:15:52;;;;;;;14.07;8.53;;;10.90;99.90;;;;;;5051100;28;20184;-73
2021/09/21 07:18:17;;;;;;;15.27;9.30;;;11.00;99.90;;;;;;5033897;28;20182;-73
2021/09/21 07:20:43;;;;;;;13.27;9.47;;;11.10;99.90;;;;;;5050985;28;20217;-74
2021/09/21 07:23:08;;;;;;;12.60;9.53;;;11.30;99.90;;;;;;5052306;28;20373;-75
2021/09/21 07:25:34;;;;;;;13.87;9.30;;;11.40;99.90;;;;;;5050937;28;20222;-76
2021/09/21 07:28:02;;;;;;;14.13;9.53;;;11.50;99.90;;;;;;5034479;28;20266;-78
2021/09/21 07:30:31;;;;;;;15.53;9.17;;;11.60;99.90;;;;;;5052437;28;20177;-77
2021/09/21 07:32:57;;;;;;;13.57;9.20;;;11.80;99.90;;;;;;5034926;28;20209;-77
2021/09/21 07:35:22;;;;;;;13.83;9.17;;;11.90;99.90;;;;;;5034325;28;20572;-77
2021/09/21 07:37:48;;;;;;;14.70;9.53;;;11.90;99.90;;;;;;5034173;28;20186;-77
2021/09/21 07:40:14;;;;;;;13.23;9.63;;;12.00;99.90;;;;;;5034048;28;20174;-77
2021/09/21 07:42:40;;;;;;;14.03;9.23;;;12.10;99.90;;;;;;5051999;28;20669;-77
2021/09/21 07:45:06;;;;;;;12.53;9.00;;;12.20;99.90;;;;;;5034484;28;20201;-77
2021/09/21 07:47:32;;;;;;;14.60;8.93;;;12.20;99.90;;;;;;5051960;28;20183;-74
2021/09/21 07:49:59;;;;;;;12.60;9.03;;;12.30;99.90;;;;;;5051684;28;20594;-74
2021/09/21 07:52:25;;;;;;;13.53;9.57;;;12.40;99.90;;;;;;5050608;28;20221;-73
2021/09/21 07:54:50;;;;;;;11.53;8.70;;;12.50;99.90;;;;;;5033819;28;20666;-73
2021/09/21 07:57:16;;;;;;;14.87;10.00;;;12.60;99.90;;;;;;5050529;28;20171;-73
2021/09/21 07:59:42;;;;;;;13.70;9.70;;;12.70;99.90;;;;;;5050355;28;20173;-74
2021/09/21 08:02:09;;;;;;;14.20;9.70;;;12.70;99.90;;;;;;5051742;28;20193;-74
2021/09/21 08:04:35;;;;;;;13.50;9.53;;;12.70;99.90;;;;;;5050306;28;20217;-74
2021/09/21 08:07:01;;;;;;;11.90;9.40;;;12.80;99.90;;;;;;5034436;28;20606;-74
2021/09/21 08:09:26;;;;;;;13.17;8.87;;;12.90;99.90;;;;;;5037773;28;20179;-74
2021/09/21 08:11:52;;;;;;;18.93;9.53;;;13.00;99.90;;;;;;5055825;28;20287;-74
2021/09/21 08:14:17;;;;;;;13.70;9.10;;;13.10;99.90;;;;;;5055773;28;20689;-74
2021/09/21 08:16:43;;;;;;;12.20;9.83;;;13.20;99.90;;;;;;5055807;28;20220;-74
2021/09/21 08:19:09;;;;;;;17.30;9.57;;;13.40;99.90;;;;;;5037613;28;20253;-74
2021/09/21 08:21:34;;;;;;;11.87;8.90;;;13.50;99.90;;;;;;5055860;28;20226;-74
2021/09/21 08:24:01;;;;;;;12.93;8.87;;;13.60;99.90;;;;;;5037636;28;20239;-74
2021/09/21 08:26:26;;;;;;;12.40;9.00;;;13.70;99.90;;;;;;5055376;28;20645;-74
2021/09/21 08:28:52;;;;;;;15.27;9.53;;;13.70;99.90;;;;;;5037495;28;20222;-74
2021/09/21 08:31:17;;;;;;;17.80;9.07;;;13.90;99.90;;;;;;5055434;28;20577;-74
2021/09/21 08:33:43;;;;;;;14.70;10.20;;;13.90;99.90;;;;;;5054376;28;20546;-74
2021/09/21 08:36:08;;;;;;;14.80;9.47;;;14.00;99.90;;;;;;5055642;28;20653;-74
2021/09/21 08:38:34;;;;;;;13.63;9.50;;;14.20;99.90;;;;;;5054272;28;20182;-74
2021/09/21 08:40:59;;;;;;;13.10;8.83;;;14.20;99.90;;;;;;5055323;28;20228;-74
2021/09/21 08:43:25;;;;;;;15.37;9.53;;;14.30;99.90;;;;;;5037486;28;20178;-74
2021/09/21 08:45:51;;;;;;;16.47;9.07;;;14.30;99.90;;;;;;5058007;28;20182;-75
2021/09/21 08:48:16;;;;;;;16.60;9.60;;;14.30;99.90;;;;;;5053939;28;20704;-75
2021/09/21 08:50:42;;;;;;;15.57;8.83;;;14.50;99.90;;;;;;5053766;28;20190;-75
2021/09/21 08:53:07;;;;;;;14.83;8.67;;;14.70;99.90;;;;;;5037470;28;20213;-75
2021/09/21 08:55:33;;;;;;;13.47;8.87;;;15.00;99.90;;;;;;5053794;28;20625;-76
2021/09/21 08:57:59;;;;;;;11.60;8.67;;;15.20;99.90;;;;;;5053777;28;20177;-75
2021/09/21 09:00:26;;;;;;;11.67;8.80;;;15.40;99.90;;;;;;5020525;28;20179;-75
2021/09/21 09:03:02;;;;;;;12.60;8.40;;;15.60;99.90;;;;;;5055059;28;20174;-75
2021/09/21 09:05:42;;;;;;;10.37;8.07;;;15.80;99.90;;;;;;5053763;28;20250;-76
2021/09/21 09:08:08;;;;;;;9.40;7.67;;;15.90;99.90;;;;;;5055358;28;20174;-76
2021/09/21 09:10:33;;;;;;;10.80;7.50;;;16.00;99.90;;;;;;5053305;28;20184;-76
2021/09/21 09:12:59;;;;;;;11.20;8.43;;;16.00;99.90;;;;;;5053325;28;20262;-76
2021/09/21 09:15:26;;;;;;;9.17;7.70;;;16.10;99.90;;;;;;5054783;28;20206;-76
2021/09/21 09:17:56;;;;;;;10.23;7.27;;;16.20;99.90;;;;;;5053607;28;20166;-76
2021/09/21 09:20:43;;;;;;;12.13;7.00;;;16.30;99.90;;;;;;5036108;28;20669;-76
2021/09/21 09:23:09;;;;;;;9.20;6.70;;;16.40;99.90;;;;;;5038204;28;20586;-76
2021/09/21 09:25:44;;;;;;;12.90;7.30;;;16.50;99.90;;;;;;5036708;28;20214;-76
2021/09/21 09:28:28;;;;;;;11.67;6.87;;;16.60;99.90;;;;;;5053365;28;20186;-76
2021/09/21 09:30:54;;;;;;;8.53;6.47;;;16.60;99.90;;;;;;5052614;28;20176;-76
2021/09/21 09:33:20;;;;;;;9.57;7.20;;;16.60;99.90;;;;;;5054221;28;20185;-75
2021/09/21 09:35:47;;;;;;;7.17;4.67;;;16.60;99.90;;;;;;5036592;28;20167;-75
2021/09/21 09:38:18;;;;;;;7.30;4.27;;;16.60;99.90;;;;;;5053126;28;20162;-75
2021/09/21 09:40:45;;;;;;;8.10;5.70;;;16.60;99.90;;;;;;5052779;28;20622;-75
2021/09/21 09:43:12;;;;;;;7.93;4.53;;;16.60;99.90;;;;;;5036485;28;20186;-75
2021/09/21 09:45:39;;;;;;;7.17;4.00;;;16.60;99.90;;;;;;5019714;28;20259;-75
2021/09/21 09:48:06;;;;;;;5.17;3.00;;;16.70;99.90;;;;;;5036607;28;20186;-75
2021/09/21 09:50:33;;;;;;;4.53;3.20;;;16.60;99.90;;;;;;5053804;28;20664;-75
2021/09/21 09:53:16;;;;;;;6.53;3.33;;;16.60;99.90;;;;;;5036276;28;20704;-75
2021/09/21 09:55:44;;;;;;;3.93;3.00;;;16.60;99.90;;;;;;5036118;28;20236;-75
2021/09/21 09:58:09;;;;;;;3.20;2.03;;;16.80;99.90;;;;;;5052730;28;20250;-76
2021/09/21 10:00:35;;;;;;;3.90;2.40;;;16.80;99.90;;;;;;5036871;28;20257;-75
2021/09/21 10:03:01;;;;;;;4.10;2.43;;;16.90;99.90;;;;;;5019744;28;20266;-75
2021/09/21 10:05:31;;;;;;;3.63;2.50;;;16.90;99.90;;;;;;5052750;28;20202;-74
2021/09/21 10:07:57;;;;;;;3.50;3.00;;;16.80;99.90;;;;;;5052736;28;20181;-76
2021/09/21 10:10:23;;;;;;;3.57;2.80;;;16.90;99.90;;;;;;5022608;28;20179;-74
2021/09/21 10:12:49;;;;;;;4.13;2.40;;;16.80;99.90;;;;;;5052669;28;20198;-74
2021/09/21 10:15:14;;;;;;;3.47;2.13;;;16.90;99.90;;;;;;5036045;28;20186;-74
2021/09/21 10:17:50;;;;;;;3.13;2.00;;;17.00;99.90;;;;;;5035892;28;20304;-74
2021/09/21 10:20:16;;;;;;;5.00;2.00;;;17.00;99.90;;;;;;5035792;28;20184;-74
2021/09/21 10:22:42;;;;;;;2.83;2.27;;;17.00;99.90;;;;;;5035716;28;20638;-73
2021/09/21 10:25:09;;;;;;;4.07;2.40;;;17.10;99.90;;;;;;5052101;28;20194;-74
2021/09/21 10:27:35;;;;;;;2.90;2.17;;;17.20;99.90;;;;;;5037420;28;20181;-78
2021/09/21 10:30:03;;;;;;;3.23;2.33;;;17.30;99.90;;;;;;5055405;28;20180;-78
2021/09/21 10:32:28;;;;;;;3.50;2.47;;;17.40;99.90;;;;;;5054493;28;20232;-76
2021/09/21 10:34:57;;;;;;;3.47;2.30;;;17.60;99.90;;;;;;5071411;28;20225;-75
2021/09/21 10:37:23;;;;;;;3.50;2.23;;;17.80;99.90;;;;;;5065416;28;20165;-75
2021/09/21 10:39:59;;;;;;;3.40;2.50;;;17.90;99.90;;;;;;5062704;28;20179;-75
2021/09/21 10:42:24;;;;;;;2.80;2.10;;;18.00;99.90;;;;;;5064425;28;20157;-75
2021/09/21 10:44:51;;;;;;;3.80;2.50;;;18.00;99.90;;;;;;5044205;28;20202;-75
2021/09/21 10:47:25;;;;;;;3.53;2.47;;;17.90;99.90;;;;;;5041050;28;20181;-75
2021/09/21 10:49:51;;;;;;;3.50;2.50;;;17.80;99.90;;;;;;5066463;28;20177;-75
2021/09/21 10:52:17;;;;;;;4.37;2.40;;;17.70;99.90;;;;;;5071650;28;20607;-76
2021/09/21 10:54:44;;;;;;;3.77;2.53;;;17.60;99.90;;;;;;5071398;28;20235;-75
2021/09/21 10:57:31;;;;;;;6.37;2.90;;;17.60;99.90;;;;;;5049612;28;20182;-75
2021/09/21 11:00:23;;;;;;;4.33;3.20;;;17.60;99.90;;;;;;5058329;28;20191;-75
2021/09/21 11:02:51;;;;;;;3.90;3.00;;;17.70;99.90;;;;;;5061189;28;20198;-75
2021/09/21 11:05:18;;;;;;;3.50;2.90;;;17.70;99.90;;;;;;5035369;28;20341;-75
2021/09/21 11:07:54;;;;;;;3.70;3.13;;;17.80;99.90;;;;;;5034900;28;20178;-74
2021/09/21 11:10:20;;;;;;;4.03;2.80;;;18.00;99.90;;;;;;5034424;28;20620;-74
2021/09/21 11:12:50;;;;;;;4.43;3.17;;;18.00;99.90;;;;;;5071185;28;20203;-75
2021/09/21 11:15:15;;;;;;;4.43;3.10;;;18.10;99.90;;;;;;5074803;28;20201;-75
2021/09/21 11:17:41;;;;;;;3.73;2.90;;;18.20;99.90;;;;;;5091743;28;20260;-75
2021/09/21 11:20:09;;;;;;;5.03;2.90;;;18.30;99.90;;;;;;5091361;28;20169;-75
2021/09/21 11:22:36;;;;;;;4.17;3.10;;;18.30;99.90;;;;;;5092675;28;20177;-74
2021/09/21 11:25:07;;;;;;;3.77;2.70;;;18.30;99.90;;;;;;5091291;28;20199;-75
2021/09/21 11:27:34;;;;;;;4.03;2.80;;;18.30;99.90;;;;;;5057946;28;20177;-75
2021/09/21 11:30:03;;;;;;;3.60;2.50;;;18.40;99.90;;;;;;5058293;28;20325;-75
2021/09/21 11:32:28;;;;;;;4.20;2.80;;;18.50;99.90;;;;;;5091494;28;20232;-75
2021/09/21 11:34:58;;;;;;;3.77;2.37;;;18.50;99.90;;;;;;5091209;28;20273;-75
2021/09/21 11:37:24;;;;;;;3.73;2.57;;;18.60;99.90;;;;;;5092456;28;20169;-75
2021/09/21 11:39:50;;;;;;;3.70;2.50;;;18.60;99.90;;;;;;5090895;28;20230;-75
2021/09/21 11:42:26;;;;;;;3.37;2.60;;;18.70;99.90;;;;;;5091097;28;20185;-75
2021/09/21 11:45:00;;;;;;;2.93;2.40;;;18.70;99.90;;;;;;5091208;28;20214;-75
2021/09/21 11:47:44;;;;;;;4.87;2.93;;;18.70;99.90;;;;;;5091974;28;20196;-76
2021/09/21 11:50:12;;;;;;;3.27;2.40;;;18.60;99.90;;;;;;5070230;28;20178;-74
2021/09/21 11:52:40;;;;;;;2.87;2.47;;;18.50;99.90;;;;;;5060770;28;20317;-74
2021/09/21 11:55:11;;;;;;;5.27;3.00;;;18.50;99.90;;;;;;5065108;28;20208;-74
2021/09/21 11:57:37;;;;;;;4.03;2.90;;;18.50;99.90;;;;;;5054921;28;20165;-75
2021/09/21 12:00:04;;;;;;;5.03;2.97;;;18.40;99.90;;;;;;5055256;28;20174;-73
2021/09/21 12:02:33;;;;;;;4.73;2.67;;;18.30;99.90;;;;;;5037212;28;20243;-75
2021/09/21 12:04:59;;;;;;;3.50;2.50;;;18.30;99.90;;;;;;5063994;28;20248;-77
2021/09/21 12:07:24;;;;;;;4.10;2.50;;;18.30;99.90;;;;;;5060058;28;20658;-76
2021/09/21 12:09:50;;;;;;;3.03;2.60;;;18.40;99.90;;;;;;5053315;28;20637;-76
2021/09/21 12:12:18;;;;;;;4.23;3.10;;;18.40;99.90;;;;;;5046584;28;20210;-76
2021/09/21 12:14:57;;;;;;;5.03;3.27;;;18.40;99.90;;;;;;5058076;28;20293;-75
2021/09/21 12:17:23;;;;;;;3.33;2.80;;;18.40;99.90;;;;;;5034394;28;20555;-76
2021/09/21 12:19:48;;;;;;;2.77;2.47;;;18.50;99.90;;;;;;5059161;28;20167;-77
2021/09/21 12:22:19;;;;;;;3.83;2.57;;;18.60;99.90;;;;;;5043141;28;20659;-76
2021/09/21 12:24:45;;;;;;;3.53;2.73;;;18.60;99.90;;;;;;5074666;28;20196;-75
2021/09/21 12:27:10;;;;;;;3.37;2.83;;;18.60;99.90;;;;;;5073954;28;20184;-74
2021/09/21 12:29:36;;;;;;;3.60;2.80;;;18.60;99.90;;;;;;5076011;28;20210;-74
2021/09/21 12:32:04;;;;;;;2.83;2.30;;;18.60;99.90;;;;;;5070361;28;20213;-74
2021/09/21 12:34:33;;;;;;;3.87;2.70;;;18.70;99.90;;;;;;5058469;28;20198;-74
2021/09/21 12:37:00;;;;;;;5.60;3.27;;;18.80;99.90;;;;;;5034373;28;20721;-76
2021/09/21 12:39:25;;;;;;;5.03;2.70;;;18.80;99.90;;;;;;5058984;28;20184;-76
2021/09/21 12:41:52;;;;;;;3.90;2.67;;;18.80;99.90;;;;;;5058977;28;20178;-76
2021/09/21 12:44:21;;;;;;;3.77;2.57;;;18.90;99.90;;;;;;5038934;28;20683;-75
2021/09/21 12:46:48;;;;;;;4.60;2.83;;;18.90;99.90;;;;;;5049978;28;20690;-75
2021/09/21 12:49:15;;;;;;;3.27;2.47;;;18.80;99.90;;;;;;5016547;28;20190;-76
2021/09/21 12:51:46;;;;;;;4.77;3.03;;;18.80;99.90;;;;;;5016216;28;20773;-76
2021/09/21 12:54:14;;;;;;;4.30;2.90;;;18.80;99.90;;;;;;5034528;28;20573;-76
2021/09/21 12:56:42;;;;;;;4.20;2.43;;;18.80;99.90;;;;;;5037661;28;20202;-76